sensor_id;sensor_type;location;lat;lon;timestamp;temperature;humidity
23116;DHT22;11727;52.134;5.052;2022-12-18T00:02:13;-2.70;99.90
23116;DHT22;11727;52.134;5.052;2022-12-18T00:04:40;-2.70;99.90
23116;DHT22;11727;52.134;5.052;2022-12-18T00:07:05;-2.70;99.90
23116;DHT22;11727;52.134;5.052;2022-12-18T00:09:31;-2.80;99.90
23116;DHT22;11727;52.134;5.052;2022-12-18T00:11:58;-2.80;99.90
23116;DHT22;11727;52.134;5.052;2022-12-18T00:14:23;-2.80;99.90
23116;DHT22;11727;52.134;5.052;2022-12-18T00:16:49;-2.80;99.90
23116;DHT22;11727;52.134;5.052;2022-12-18T00:19:15;-2.90;99.90
23116;DHT22;11727;52.134;5.052;2022-12-18T00:21:41;-2.90;99.90
23116;DHT22;11727;52.134;5.052;2022-12-18T00:24:08;-2.80;99.90
23116;DHT22;11727;52.134;5.052;2022-12-18T00:26:36;-2.80;99.90
23116;DHT22;11727;52.134;5.052;2022-12-18T00:29:09;-2.90;99.90
23116;DHT22;11727;52.134;5.052;2022-12-18T00:31:36;-2.90;99.90
23116;DHT22;11727;52.134;5.052;2022-12-18T00:34:02;-2.90;99.90
23116;DHT22;11727;52.134;5.052;2022-12-18T00:36:31;-3.00;99.90
23116;DHT22;11727;52.134;5.052;2022-12-18T00:38:58;-3.00;99.90
23116;DHT22;11727;52.134;5.052;2022-12-18T00:41:24;-3.00;99.90
23116;DHT22;11727;52.134;5.052;2022-12-18T00:44:11;-3.00;99.90
23116;DHT22;11727;52.134;5.052;2022-12-18T00:46:37;-3.00;99.90
23116;DHT22;11727;52.134;5.052;2022-12-18T00:49:04;-3.00;99.90
23116;DHT22;11727;52.134;5.052;2022-12-18T00:51:29;-3.00;99.90
23116;DHT22;11727;52.134;5.052;2022-12-18T00:53:55;-3.00;99.90
23116;DHT22;11727;52.134;5.052;2022-12-18T00:56:21;-3.10;99.90
23116;DHT22;11727;52.134;5.052;2022-12-18T00:58:47;-3.00;99.90
23116;DHT22;11727;52.134;5.052;2022-12-18T01:01:13;-3.10;99.90
23116;DHT22;11727;52.134;5.052;2022-12-18T01:03:38;-3.10;99.90
23116;DHT22;11727;52.134;5.052;2022-12-18T01:06:09;-3.10;99.90
23116;DHT22;11727;52.134;5.052;2022-12-18T01:08:35;-3.10;99.90
23116;DHT22;11727;52.134;5.052;2022-12-18T01:11:06;-3.10;99.90
23116;DHT22;11727;52.134;5.052;2022-12-18T01:13:32;-3.10;99.90
23116;DHT22;11727;52.134;5.052;2022-12-18T01:15:57;-3.20;99.90
23116;DHT22;11727;52.134;5.052;2022-12-18T01:18:23;-3.10;99.90
23116;DHT22;11727;52.134;5.052;2022-12-18T01:20:48;-3.20;99.90
23116;DHT22;11727;52.134;5.052;2022-12-18T01:23:14;-3.20;99.90
23116;DHT22;11727;52.134;5.052;2022-12-18T01:25:39;-3.20;99.90
23116;DHT22;11727;52.134;5.052;2022-12-18T01:28:05;-3.20;99.90
23116;DHT22;11727;52.134;5.052;2022-12-18T01:30:31;-3.20;99.90
23116;DHT22;11727;52.134;5.052;2022-12-18T01:32:56;-3.20;99.90
23116;DHT22;11727;52.134;5.052;2022-12-18T01:35:22;-3.20;99.90
23116;DHT22;11727;52.134;5.052;2022-12-18T01:37:48;-3.20;99.90
23116;DHT22;11727;52.134;5.052;2022-12-18T01:40:13;-3.20;99.90
23116;DHT22;11727;52.134;5.052;2022-12-18T01:42:40;-3.20;99.90
23116;DHT22;11727;52.134;5.052;2022-12-18T01:47:50;-3.20;99.90
23116;DHT22;11727;52.134;5.052;2022-12-18T01:52:52;-3.30;99.90
23116;DHT22;11727;52.134;5.052;2022-12-18T01:55:22;-3.30;99.90
23116;DHT22;11727;52.134;5.052;2022-12-18T01:57:50;-3.30;99.90
23116;DHT22;11727;52.134;5.052;2022-12-18T02:00:20;-3.30;99.90
23116;DHT22;11727;52.134;5.052;2022-12-18T02:02:46;-3.30;99.90
23116;DHT22;11727;52.134;5.052;2022-12-18T02:05:15;-3.30;99.90
23116;DHT22;11727;52.134;5.052;2022-12-18T02:10:19;-3.40;99.90
23116;DHT22;11727;52.134;5.052;2022-12-18T02:13:13;-3.40;99.90
23116;DHT22;11727;52.134;5.052;2022-12-18T02:16:18;-3.40;99.90
23116;DHT22;11727;52.134;5.052;2022-12-18T02:18:50;-3.40;99.90
23116;DHT22;11727;52.134;5.052;2022-12-18T02:21:49;-3.40;99.90
23116;DHT22;11727;52.134;5.052;2022-12-18T02:27:07;-3.40;99.90
23116;DHT22;11727;52.134;5.052;2022-12-18T02:29:40;-3.40;99.90
23116;DHT22;11727;52.134;5.052;2022-12-18T02:32:14;-3.40;99.90
23116;DHT22;11727;52.134;5.052;2022-12-18T02:34:43;-3.40;99.90
23116;DHT22;11727;52.134;5.052;2022-12-18T02:37:13;-3.40;99.90
23116;DHT22;11727;52.134;5.052;2022-12-18T02:39:42;-3.40;99.90
23116;DHT22;11727;52.134;5.052;2022-12-18T02:42:08;-3.40;99.90
23116;DHT22;11727;52.134;5.052;2022-12-18T02:44:48;-3.40;99.90
23116;DHT22;11727;52.134;5.052;2022-12-18T02:47:18;-3.50;99.90
23116;DHT22;11727;52.134;5.052;2022-12-18T02:57:42;-3.60;99.90
23116;DHT22;11727;52.134;5.052;2022-12-18T03:00:16;-3.70;99.90
23116;DHT22;11727;52.134;5.052;2022-12-18T03:05:16;-3.80;99.90
23116;DHT22;11727;52.134;5.052;2022-12-18T03:07:51;-3.80;99.90
23116;DHT22;11727;52.134;5.052;2022-12-18T03:10:23;-3.90;99.90
23116;DHT22;11727;52.134;5.052;2022-12-18T03:12:54;-3.90;99.90
23116;DHT22;11727;52.134;5.052;2022-12-18T03:15:24;-3.90;99.90
23116;DHT22;11727;52.134;5.052;2022-12-18T03:18:00;-4.00;99.90
23116;DHT22;11727;52.134;5.052;2022-12-18T03:20:29;-4.10;99.90
23116;DHT22;11727;52.134;5.052;2022-12-18T03:23:02;-4.10;99.90
23116;DHT22;11727;52.134;5.052;2022-12-18T03:25:30;-4.10;99.90
23116;DHT22;11727;52.134;5.052;2022-12-18T03:27:58;-4.20;99.90
23116;DHT22;11727;52.134;5.052;2022-12-18T03:30:26;-4.20;99.90
23116;DHT22;11727;52.134;5.052;2022-12-18T03:35:36;-4.30;99.90
23116;DHT22;11727;52.134;5.052;2022-12-18T03:38:02;-4.30;99.90
23116;DHT22;11727;52.134;5.052;2022-12-18T03:40:53;-4.30;99.90
23116;DHT22;11727;52.134;5.052;2022-12-18T03:46:06;-4.40;99.90
23116;DHT22;11727;52.134;5.052;2022-12-18T03:48:40;-4.40;99.90
23116;DHT22;11727;52.134;5.052;2022-12-18T03:54:03;-4.50;99.90
23116;DHT22;11727;52.134;5.052;2022-12-18T03:56:33;-4.50;99.90
23116;DHT22;11727;52.134;5.052;2022-12-18T03:59:02;-4.50;99.90
23116;DHT22;11727;52.134;5.052;2022-12-18T04:01:35;-4.50;99.90
23116;DHT22;11727;52.134;5.052;2022-12-18T04:04:04;-4.50;99.90
23116;DHT22;11727;52.134;5.052;2022-12-18T04:06:30;-4.60;99.90
23116;DHT22;11727;52.134;5.052;2022-12-18T04:09:00;-4.60;99.90
23116;DHT22;11727;52.134;5.052;2022-12-18T04:11:26;-4.60;99.90
23116;DHT22;11727;52.134;5.052;2022-12-18T04:13:56;-4.60;99.90
23116;DHT22;11727;52.134;5.052;2022-12-18T04:16:23;-4.60;99.90
23116;DHT22;11727;52.134;5.052;2022-12-18T04:18:49;-4.70;99.90
23116;DHT22;11727;52.134;5.052;2022-12-18T04:21:14;-4.70;99.90
23116;DHT22;11727;52.134;5.052;2022-12-18T04:23:40;-4.70;99.90
23116;DHT22;11727;52.134;5.052;2022-12-18T04:26:05;-4.70;99.90
23116;DHT22;11727;52.134;5.052;2022-12-18T04:28:31;-4.70;99.90
23116;DHT22;11727;52.134;5.052;2022-12-18T04:30:56;-4.80;99.90
23116;DHT22;11727;52.134;5.052;2022-12-18T04:33:22;-4.80;99.90
23116;DHT22;11727;52.134;5.052;2022-12-18T04:35:48;-4.80;99.90
23116;DHT22;11727;52.134;5.052;2022-12-18T04:38:13;-4.90;99.90
23116;DHT22;11727;52.134;5.052;2022-12-18T04:40:39;-4.90;99.90
23116;DHT22;11727;52.134;5.052;2022-12-18T04:43:04;-4.90;99.90
23116;DHT22;11727;52.134;5.052;2022-12-18T04:45:31;-4.90;99.90
23116;DHT22;11727;52.134;5.052;2022-12-18T04:47:58;-4.90;99.90
23116;DHT22;11727;52.134;5.052;2022-12-18T04:50:23;-5.00;99.90
23116;DHT22;11727;52.134;5.052;2022-12-18T04:52:49;-4.90;99.90
23116;DHT22;11727;52.134;5.052;2022-12-18T04:55:15;-5.00;99.90
23116;DHT22;11727;52.134;5.052;2022-12-18T04:57:40;-5.00;99.90
23116;DHT22;11727;52.134;5.052;2022-12-18T05:00:07;-5.00;99.90
23116;DHT22;11727;52.134;5.052;2022-12-18T05:02:32;-5.00;99.90
23116;DHT22;11727;52.134;5.052;2022-12-18T05:04:58;-5.00;99.90
23116;DHT22;11727;52.134;5.052;2022-12-18T05:07:23;-5.00;99.90
23116;DHT22;11727;52.134;5.052;2022-12-18T05:09:49;-4.90;99.90
23116;DHT22;11727;52.134;5.052;2022-12-18T05:12:15;-5.00;99.90
23116;DHT22;11727;52.134;5.052;2022-12-18T05:14:41;-5.00;99.90
23116;DHT22;11727;52.134;5.052;2022-12-18T05:17:06;-4.90;99.90
23116;DHT22;11727;52.134;5.052;2022-12-18T05:19:32;-5.00;99.90
23116;DHT22;11727;52.134;5.052;2022-12-18T05:21:57;-5.00;99.90
23116;DHT22;11727;52.134;5.052;2022-12-18T05:24:23;-5.00;99.90
23116;DHT22;11727;52.134;5.052;2022-12-18T05:26:49;-5.00;99.90
23116;DHT22;11727;52.134;5.052;2022-12-18T05:29:14;-5.00;99.90
23116;DHT22;11727;52.134;5.052;2022-12-18T05:31:40;-5.00;99.90
23116;DHT22;11727;52.134;5.052;2022-12-18T05:34:06;-5.00;99.90
23116;DHT22;11727;52.134;5.052;2022-12-18T05:36:31;-5.00;99.90
23116;DHT22;11727;52.134;5.052;2022-12-18T05:38:57;-5.00;99.90
23116;DHT22;11727;52.134;5.052;2022-12-18T05:41:22;-5.10;99.90
23116;DHT22;11727;52.134;5.052;2022-12-18T05:43:48;-5.10;99.90
23116;DHT22;11727;52.134;5.052;2022-12-18T05:46:16;-5.10;99.90
23116;DHT22;11727;52.134;5.052;2022-12-18T05:48:43;-5.10;99.90
23116;DHT22;11727;52.134;5.052;2022-12-18T05:51:11;-5.00;99.90
23116;DHT22;11727;52.134;5.052;2022-12-18T05:53:37;-5.00;99.90
23116;DHT22;11727;52.134;5.052;2022-12-18T05:56:06;-5.10;99.90
23116;DHT22;11727;52.134;5.052;2022-12-18T05:58:32;-5.00;99.90
23116;DHT22;11727;52.134;5.052;2022-12-18T06:01:09;-5.00;99.90
23116;DHT22;11727;52.134;5.052;2022-12-18T06:03:36;-5.10;99.90
23116;DHT22;11727;52.134;5.052;2022-12-18T06:06:02;-5.10;99.90
23116;DHT22;11727;52.134;5.052;2022-12-18T06:08:27;-5.10;99.90
23116;DHT22;11727;52.134;5.052;2022-12-18T06:10:53;-5.10;99.90
23116;DHT22;11727;52.134;5.052;2022-12-18T06:13:20;-5.20;99.90
23116;DHT22;11727;52.134;5.052;2022-12-18T06:15:45;-5.20;99.90
23116;DHT22;11727;52.134;5.052;2022-12-18T06:18:11;-5.10;99.90
23116;DHT22;11727;52.134;5.052;2022-12-18T06:20:37;-5.20;99.90
23116;DHT22;11727;52.134;5.052;2022-12-18T06:23:05;-5.20;99.90
23116;DHT22;11727;52.134;5.052;2022-12-18T06:25:31;-5.20;99.90
23116;DHT22;11727;52.134;5.052;2022-12-18T06:27:56;-5.20;99.90
23116;DHT22;11727;52.134;5.052;2022-12-18T06:30:22;-5.20;99.90
23116;DHT22;11727;52.134;5.052;2022-12-18T06:32:49;-5.20;99.90
23116;DHT22;11727;52.134;5.052;2022-12-18T06:35:14;-5.20;99.90
23116;DHT22;11727;52.134;5.052;2022-12-18T06:37:40;-5.30;99.90
23116;DHT22;11727;52.134;5.052;2022-12-18T06:40:06;-5.30;99.90
23116;DHT22;11727;52.134;5.052;2022-12-18T06:42:32;-5.30;99.90
23116;DHT22;11727;52.134;5.052;2022-12-18T06:44:58;-5.30;99.90
23116;DHT22;11727;52.134;5.052;2022-12-18T06:47:23;-5.30;99.90
23116;DHT22;11727;52.134;5.052;2022-12-18T06:49:49;-5.30;99.90
23116;DHT22;11727;52.134;5.052;2022-12-18T06:52:15;-5.30;99.90
23116;DHT22;11727;52.134;5.052;2022-12-18T06:54:40;-5.30;99.90
23116;DHT22;11727;52.134;5.052;2022-12-18T06:57:06;-5.30;99.90
23116;DHT22;11727;52.134;5.052;2022-12-18T06:59:31;-5.20;99.90
23116;DHT22;11727;52.134;5.052;2022-12-18T07:01:57;-5.20;99.90
23116;DHT22;11727;52.134;5.052;2022-12-18T07:04:28;-5.20;99.90
23116;DHT22;11727;52.134;5.052;2022-12-18T07:06:54;-5.20;99.90
23116;DHT22;11727;52.134;5.052;2022-12-18T07:09:19;-5.20;99.90
23116;DHT22;11727;52.134;5.052;2022-12-18T07:11:45;-5.10;99.90
23116;DHT22;11727;52.134;5.052;2022-12-18T07:14:10;-5.10;99.90
23116;DHT22;11727;52.134;5.052;2022-12-18T07:16:36;-5.10;99.90
23116;DHT22;11727;52.134;5.052;2022-12-18T07:19:02;-5.10;99.90
23116;DHT22;11727;52.134;5.052;2022-12-18T07:21:27;-5.00;99.90
23116;DHT22;11727;52.134;5.052;2022-12-18T07:23:53;-5.00;99.90
23116;DHT22;11727;52.134;5.052;2022-12-18T07:26:20;-5.00;99.90
23116;DHT22;11727;52.134;5.052;2022-12-18T07:28:46;-5.00;99.90
23116;DHT22;11727;52.134;5.052;2022-12-18T07:31:15;-4.90;99.90
23116;DHT22;11727;52.134;5.052;2022-12-18T07:33:41;-4.90;99.90
23116;DHT22;11727;52.134;5.052;2022-12-18T07:36:08;-4.80;99.90
23116;DHT22;11727;52.134;5.052;2022-12-18T07:38:35;-4.80;99.90
23116;DHT22;11727;52.134;5.052;2022-12-18T07:41:12;-4.70;99.90
23116;DHT22;11727;52.134;5.052;2022-12-18T07:43:39;-4.70;99.90
23116;DHT22;11727;52.134;5.052;2022-12-18T07:46:05;-4.70;99.90
23116;DHT22;11727;52.134;5.052;2022-12-18T07:48:31;-4.70;99.90
23116;DHT22;11727;52.134;5.052;2022-12-18T07:51:00;-4.70;99.90
23116;DHT22;11727;52.134;5.052;2022-12-18T07:53:27;-4.70;99.90
23116;DHT22;11727;52.134;5.052;2022-12-18T07:56:02;-4.70;99.90
23116;DHT22;11727;52.134;5.052;2022-12-18T07:58:29;-4.70;99.90
23116;DHT22;11727;52.134;5.052;2022-12-18T08:01:03;-4.70;99.90
23116;DHT22;11727;52.134;5.052;2022-12-18T08:03:28;-4.70;99.90
23116;DHT22;11727;52.134;5.052;2022-12-18T08:06:01;-4.60;99.90
23116;DHT22;11727;52.134;5.052;2022-12-18T08:08:27;-4.60;99.90
23116;DHT22;11727;52.134;5.052;2022-12-18T08:10:53;-4.60;99.90
23116;DHT22;11727;52.134;5.052;2022-12-18T08:13:19;-4.60;99.90
23116;DHT22;11727;52.134;5.052;2022-12-18T08:15:44;-4.60;99.90
23116;DHT22;11727;52.134;5.052;2022-12-18T08:18:10;-4.60;99.90
23116;DHT22;11727;52.134;5.052;2022-12-18T08:20:35;-4.60;99.90
23116;DHT22;11727;52.134;5.052;2022-12-18T08:23:01;-4.50;99.90
23116;DHT22;11727;52.134;5.052;2022-12-18T08:25:27;-4.50;99.90
23116;DHT22;11727;52.134;5.052;2022-12-18T08:27:52;-4.50;99.90
23116;DHT22;11727;52.134;5.052;2022-12-18T08:30:18;-4.50;99.90
23116;DHT22;11727;52.134;5.052;2022-12-18T08:32:43;-4.40;99.90
23116;DHT22;11727;52.134;5.052;2022-12-18T08:35:10;-4.30;99.90
23116;DHT22;11727;52.134;5.052;2022-12-18T08:37:37;-4.30;99.90
23116;DHT22;11727;52.134;5.052;2022-12-18T08:40:03;-4.30;99.90
23116;DHT22;11727;52.134;5.052;2022-12-18T08:42:29;-4.20;99.90
23116;DHT22;11727;52.134;5.052;2022-12-18T08:45:13;-4.20;99.90
23116;DHT22;11727;52.134;5.052;2022-12-18T08:47:38;-4.10;99.90
23116;DHT22;11727;52.134;5.052;2022-12-18T08:50:04;-4.10;99.90
23116;DHT22;11727;52.134;5.052;2022-12-18T08:52:32;-4.10;99.90
23116;DHT22;11727;52.134;5.052;2022-12-18T08:54:57;-4.00;99.90
23116;DHT22;11727;52.134;5.052;2022-12-18T08:57:23;-3.90;99.90
23116;DHT22;11727;52.134;5.052;2022-12-18T08:59:48;-3.90;99.90
23116;DHT22;11727;52.134;5.052;2022-12-18T09:02:14;-3.80;99.90
23116;DHT22;11727;52.134;5.052;2022-12-18T09:04:40;-3.80;99.90
23116;DHT22;11727;52.134;5.052;2022-12-18T09:07:05;-3.80;99.90
23116;DHT22;11727;52.134;5.052;2022-12-18T09:09:32;-3.80;99.90
23116;DHT22;11727;52.134;5.052;2022-12-18T09:11:58;-3.70;99.90
23116;DHT22;11727;52.134;5.052;2022-12-18T09:14:23;-3.70;99.90
23116;DHT22;11727;52.134;5.052;2022-12-18T09:16:49;-3.70;99.90
23116;DHT22;11727;52.134;5.052;2022-12-18T09:19:14;-3.60;99.90
23116;DHT22;11727;52.134;5.052;2022-12-18T09:21:40;-3.60;99.90
23116;DHT22;11727;52.134;5.052;2022-12-18T09:24:06;-3.50;99.90
23116;DHT22;11727;52.134;5.052;2022-12-18T09:26:31;-3.40;99.90
23116;DHT22;11727;52.134;5.052;2022-12-18T09:28:57;-3.40;99.90
23116;DHT22;11727;52.134;5.052;2022-12-18T09:31:24;-3.30;99.90
23116;DHT22;11727;52.134;5.052;2022-12-18T09:33:50;-3.30;99.90
23116;DHT22;11727;52.134;5.052;2022-12-18T09:36:17;-3.30;99.90
23116;DHT22;11727;52.134;5.052;2022-12-18T09:38:43;-3.30;99.90
23116;DHT22;11727;52.134;5.052;2022-12-18T09:41:47;-3.20;99.90
23116;DHT22;11727;52.134;5.052;2022-12-18T09:44:33;-3.20;99.90
23116;DHT22;11727;52.134;5.052;2022-12-18T09:49:32;-3.10;99.90
23116;DHT22;11727;52.134;5.052;2022-12-18T09:52:19;-3.00;99.90
23116;DHT22;11727;52.134;5.052;2022-12-18T09:54:52;-3.00;99.90
23116;DHT22;11727;52.134;5.052;2022-12-18T09:57:22;-3.00;99.90
23116;DHT22;11727;52.134;5.052;2022-12-18T09:59:56;-2.90;99.90
23116;DHT22;11727;52.134;5.052;2022-12-18T10:02:25;-2.90;99.90
23116;DHT22;11727;52.134;5.052;2022-12-18T10:05:06;-2.80;99.90
23116;DHT22;11727;52.134;5.052;2022-12-18T10:13:17;-2.60;99.90
23116;DHT22;11727;52.134;5.052;2022-12-18T10:15:59;-2.60;99.90
23116;DHT22;11727;52.134;5.052;2022-12-18T10:21:17;-2.50;99.90
23116;DHT22;11727;52.134;5.052;2022-12-18T10:26:34;-2.40;99.90
23116;DHT22;11727;52.134;5.052;2022-12-18T10:29:00;-2.40;99.90
23116;DHT22;11727;52.134;5.052;2022-12-18T10:31:26;-2.30;99.90
23116;DHT22;11727;52.134;5.052;2022-12-18T10:33:55;-2.30;99.90
23116;DHT22;11727;52.134;5.052;2022-12-18T10:36:22;-2.30;99.90
23116;DHT22;11727;52.134;5.052;2022-12-18T10:38:48;-2.30;99.90
23116;DHT22;11727;52.134;5.052;2022-12-18T10:44:12;-2.20;99.90
23116;DHT22;11727;52.134;5.052;2022-12-18T10:46:38;-2.20;99.90
23116;DHT22;11727;52.134;5.052;2022-12-18T10:49:04;-2.10;99.90
23116;DHT22;11727;52.134;5.052;2022-12-18T10:51:31;-2.10;99.90
23116;DHT22;11727;52.134;5.052;2022-12-18T10:54:04;-2.10;99.90
23116;DHT22;11727;52.134;5.052;2022-12-18T10:56:32;-2.00;99.90
23116;DHT22;11727;52.134;5.052;2022-12-18T10:59:07;-2.00;99.90
23116;DHT22;11727;52.134;5.052;2022-12-18T11:01:56;-1.90;99.90
23116;DHT22;11727;52.134;5.052;2022-12-18T11:04:28;-1.90;99.90
23116;DHT22;11727;52.134;5.052;2022-12-18T11:07:02;-1.90;99.90
23116;DHT22;11727;52.134;5.052;2022-12-18T11:09:33;-1.80;99.90
23116;DHT22;11727;52.134;5.052;2022-12-18T11:12:04;-1.80;99.90
23116;DHT22;11727;52.134;5.052;2022-12-18T11:14:51;-1.70;99.90
23116;DHT22;11727;52.134;5.052;2022-12-18T11:17:32;-1.70;99.90
23116;DHT22;11727;52.134;5.052;2022-12-18T11:20:05;-1.60;99.90
23116;DHT22;11727;52.134;5.052;2022-12-18T11:22:34;-1.60;99.90
23116;DHT22;11727;52.134;5.052;2022-12-18T11:27:56;-1.50;99.90
23116;DHT22;11727;52.134;5.052;2022-12-18T11:30:27;-1.50;99.90
23116;DHT22;11727;52.134;5.052;2022-12-18T11:33:04;-1.40;99.90
23116;DHT22;11727;52.134;5.052;2022-12-18T11:38:38;-1.40;99.90
23116;DHT22;11727;52.134;5.052;2022-12-18T11:41:14;-1.30;99.90
23116;DHT22;11727;52.134;5.052;2022-12-18T11:44:02;-1.30;99.90
23116;DHT22;11727;52.134;5.052;2022-12-18T11:46:38;-1.30;99.90
23116;DHT22;11727;52.134;5.052;2022-12-18T11:49:17;-1.30;99.90
23116;DHT22;11727;52.134;5.052;2022-12-18T11:52:50;-1.20;99.90
23116;DHT22;11727;52.134;5.052;2022-12-18T11:54:44;-1.20;99.90
23116;DHT22;11727;52.134;5.052;2022-12-18T12:14:07;-1.00;99.90
23116;DHT22;11727;52.134;5.052;2022-12-18T12:16:52;-0.90;99.90
23116;DHT22;11727;52.134;5.052;2022-12-18T12:19:42;-0.90;99.90
23116;DHT22;11727;52.134;5.052;2022-12-18T12:25:37;-0.80;99.90
23116;DHT22;11727;52.134;5.052;2022-12-18T12:28:01;-0.70;99.90
23116;DHT22;11727;52.134;5.052;2022-12-18T12:31:02;-0.70;99.90
23116;DHT22;11727;52.134;5.052;2022-12-18T12:34:13;-0.70;99.90
23116;DHT22;11727;52.134;5.052;2022-12-18T12:36:40;-0.70;99.90
23116;DHT22;11727;52.134;5.052;2022-12-18T12:39:14;-0.70;99.90
23116;DHT22;11727;52.134;5.052;2022-12-18T12:41:41;-0.70;99.90
23116;DHT22;11727;52.134;5.052;2022-12-18T12:44:33;-0.70;99.90
23116;DHT22;11727;52.134;5.052;2022-12-18T12:47:04;-0.70;99.90
23116;DHT22;11727;52.134;5.052;2022-12-18T12:49:33;-0.70;99.90
23116;DHT22;11727;52.134;5.052;2022-12-18T12:52:10;-0.70;99.90
23116;DHT22;11727;52.134;5.052;2022-12-18T12:54:36;-0.60;99.90
23116;DHT22;11727;52.134;5.052;2022-12-18T13:00:14;-0.60;99.90
23116;DHT22;11727;52.134;5.052;2022-12-18T13:02:53;-0.60;99.90
23116;DHT22;11727;52.134;5.052;2022-12-18T13:05:34;-0.60;99.90
23116;DHT22;11727;52.134;5.052;2022-12-18T13:08:06;-0.50;99.90
23116;DHT22;11727;52.134;5.052;2022-12-18T13:10:34;-0.50;99.90
23116;DHT22;11727;52.134;5.052;2022-12-18T13:13:11;-0.60;99.90
23116;DHT22;11727;52.134;5.052;2022-12-18T13:20:35;-0.50;99.90
23116;DHT22;11727;52.134;5.052;2022-12-18T13:23:29;-0.50;99.90
23116;DHT22;11727;52.134;5.052;2022-12-18T13:37:52;-0.50;99.90
23116;DHT22;11727;52.134;5.052;2022-12-18T13:46:05;-0.50;99.90
23116;DHT22;11727;52.134;5.052;2022-12-18T13:48:37;-0.40;99.90
23116;DHT22;11727;52.134;5.052;2022-12-18T13:51:06;-0.50;99.90
23116;DHT22;11727;52.134;5.052;2022-12-18T13:53:46;-0.40;99.90
23116;DHT22;11727;52.134;5.052;2022-12-18T13:56:18;-0.40;99.90
23116;DHT22;11727;52.134;5.052;2022-12-18T13:58:47;-0.40;99.90
23116;DHT22;11727;52.134;5.052;2022-12-18T14:01:28;-0.40;99.90
23116;DHT22;11727;52.134;5.052;2022-12-18T14:04:30;-0.50;99.90
23116;DHT22;11727;52.134;5.052;2022-12-18T14:07:15;-0.50;99.90
23116;DHT22;11727;52.134;5.052;2022-12-18T14:09:43;-0.40;99.90
23116;DHT22;11727;52.134;5.052;2022-12-18T14:12:34;-0.40;99.90
23116;DHT22;11727;52.134;5.052;2022-12-18T14:15:29;-0.40;99.90
23116;DHT22;11727;52.134;5.052;2022-12-18T14:20:31;-0.40;99.90
23116;DHT22;11727;52.134;5.052;2022-12-18T14:22:57;-0.40;99.90
23116;DHT22;11727;52.134;5.052;2022-12-18T14:25:28;-0.30;99.90
23116;DHT22;11727;52.134;5.052;2022-12-18T14:28:13;-0.30;99.90
23116;DHT22;11727;52.134;5.052;2022-12-18T14:30:43;-0.30;99.90
23116;DHT22;11727;52.134;5.052;2022-12-18T14:33:11;-0.30;99.90
23116;DHT22;11727;52.134;5.052;2022-12-18T14:35:56;-0.30;99.90
23116;DHT22;11727;52.134;5.052;2022-12-18T14:38:36;-0.30;99.90
23116;DHT22;11727;52.134;5.052;2022-12-18T14:41:14;-0.30;99.90
23116;DHT22;11727;52.134;5.052;2022-12-18T14:43:44;-0.30;99.90
23116;DHT22;11727;52.134;5.052;2022-12-18T14:46:39;-0.30;99.90
23116;DHT22;11727;52.134;5.052;2022-12-18T14:49:29;-0.30;99.90
23116;DHT22;11727;52.134;5.052;2022-12-18T14:52:02;-0.30;99.90
23116;DHT22;11727;52.134;5.052;2022-12-18T14:54:29;-0.30;99.90
23116;DHT22;11727;52.134;5.052;2022-12-18T14:57:25;-0.30;99.90
23116;DHT22;11727;52.134;5.052;2022-12-18T14:59:52;-0.30;99.90
23116;DHT22;11727;52.134;5.052;2022-12-18T15:02:24;-0.30;99.90
23116;DHT22;11727;52.134;5.052;2022-12-18T15:05:20;-0.30;99.90
23116;DHT22;11727;52.134;5.052;2022-12-18T15:07:54;-0.30;99.90
23116;DHT22;11727;52.134;5.052;2022-12-18T15:10:31;-0.30;99.90
23116;DHT22;11727;52.134;5.052;2022-12-18T15:21:06;-0.30;99.90
23116;DHT22;11727;52.134;5.052;2022-12-18T15:26:07;-0.30;99.90
23116;DHT22;11727;52.134;5.052;2022-12-18T15:28:37;-0.30;99.90
23116;DHT22;11727;52.134;5.052;2022-12-18T15:33:40;-0.30;99.90
23116;DHT22;11727;52.134;5.052;2022-12-18T15:36:14;-0.30;99.90
23116;DHT22;11727;52.134;5.052;2022-12-18T15:38:40;-0.30;99.90
23116;DHT22;11727;52.134;5.052;2022-12-18T15:41:13;-0.30;99.90
23116;DHT22;11727;52.134;5.052;2022-12-18T15:43:38;-0.30;99.90
23116;DHT22;11727;52.134;5.052;2022-12-18T15:46:16;-0.30;99.90
23116;DHT22;11727;52.134;5.052;2022-12-18T15:48:56;-0.30;99.90
23116;DHT22;11727;52.134;5.052;2022-12-18T15:51:32;-0.30;99.90
23116;DHT22;11727;52.134;5.052;2022-12-18T15:54:00;-0.30;99.90
23116;DHT22;11727;52.134;5.052;2022-12-18T15:56:26;-0.30;99.90
23116;DHT22;11727;52.134;5.052;2022-12-18T15:59:16;-0.30;99.90
23116;DHT22;11727;52.134;5.052;2022-12-18T16:01:46;-0.30;99.90
23116;DHT22;11727;52.134;5.052;2022-12-18T16:04:13;-0.30;99.90
23116;DHT22;11727;52.134;5.052;2022-12-18T16:06:39;-0.30;99.90
23116;DHT22;11727;52.134;5.052;2022-12-18T16:09:04;-0.30;99.90
23116;DHT22;11727;52.134;5.052;2022-12-18T16:11:32;-0.30;99.90
23116;DHT22;11727;52.134;5.052;2022-12-18T16:14:11;-0.20;99.90
23116;DHT22;11727;52.134;5.052;2022-12-18T16:16:38;-0.20;99.90
23116;DHT22;11727;52.134;5.052;2022-12-18T16:19:03;-0.20;99.90
23116;DHT22;11727;52.134;5.052;2022-12-18T16:21:29;-0.20;99.90
23116;DHT22;11727;52.134;5.052;2022-12-18T16:23:54;-0.20;99.90
23116;DHT22;11727;52.134;5.052;2022-12-18T16:26:20;-0.20;99.90
23116;DHT22;11727;52.134;5.052;2022-12-18T16:28:46;-0.20;99.90
23116;DHT22;11727;52.134;5.052;2022-12-18T16:31:11;-0.20;99.90
23116;DHT22;11727;52.134;5.052;2022-12-18T16:33:37;-0.20;99.90
23116;DHT22;11727;52.134;5.052;2022-12-18T16:36:02;-0.10;99.90
23116;DHT22;11727;52.134;5.052;2022-12-18T16:38:28;-0.10;99.90
23116;DHT22;11727;52.134;5.052;2022-12-18T16:40:54;-0.10;99.90
23116;DHT22;11727;52.134;5.052;2022-12-18T16:43:38;-0.10;99.90
23116;DHT22;11727;52.134;5.052;2022-12-18T16:46:03;-0.10;99.90
23116;DHT22;11727;52.134;5.052;2022-12-18T16:48:29;-0.10;99.90
23116;DHT22;11727;52.134;5.052;2022-12-18T16:51:00;-0.10;99.90
23116;DHT22;11727;52.134;5.052;2022-12-18T16:53:27;-0.10;99.90
23116;DHT22;11727;52.134;5.052;2022-12-18T16:55:56;-0.10;99.90
23116;DHT22;11727;52.134;5.052;2022-12-18T16:58:22;-0.10;99.90
23116;DHT22;11727;52.134;5.052;2022-12-18T17:00:47;0.00;99.90
23116;DHT22;11727;52.134;5.052;2022-12-18T17:03:13;0.00;99.90
23116;DHT22;11727;52.134;5.052;2022-12-18T17:05:38;0.00;99.90
23116;DHT22;11727;52.134;5.052;2022-12-18T17:08:05;0.00;99.90
23116;DHT22;11727;52.134;5.052;2022-12-18T17:10:33;0.00;99.90
23116;DHT22;11727;52.134;5.052;2022-12-18T17:12:59;0.00;99.90
23116;DHT22;11727;52.134;5.052;2022-12-18T17:15:25;0.00;99.90
23116;DHT22;11727;52.134;5.052;2022-12-18T17:17:51;0.00;99.90
23116;DHT22;11727;52.134;5.052;2022-12-18T17:20:16;0.00;99.90
23116;DHT22;11727;52.134;5.052;2022-12-18T17:22:42;0.00;99.90
23116;DHT22;11727;52.134;5.052;2022-12-18T17:25:08;0.00;99.90
23116;DHT22;11727;52.134;5.052;2022-12-18T17:27:33;0.00;99.90
23116;DHT22;11727;52.134;5.052;2022-12-18T17:29:59;0.00;99.90
23116;DHT22;11727;52.134;5.052;2022-12-18T17:32:24;0.10;99.90
23116;DHT22;11727;52.134;5.052;2022-12-18T17:34:53;0.10;99.90
23116;DHT22;11727;52.134;5.052;2022-12-18T17:37:19;0.10;99.90
23116;DHT22;11727;52.134;5.052;2022-12-18T17:39:44;0.10;99.90
23116;DHT22;11727;52.134;5.052;2022-12-18T17:42:10;0.10;99.90
23116;DHT22;11727;52.134;5.052;2022-12-18T17:44:36;0.20;99.90